7727.cn alexa rank chart, 7727.cn alexa rank daily changes

7727.cn alexa rank chart, 7727.cn alexa rank daily changes

7727.cn
Actual rank:
307 388

RANK HISTORY

Date Rank Diff
2017/08/20 307 388 -569
2017/08/19 307 957 -332
2017/08/18 308 289 -39 356
2017/08/17 347 645 +1 152
2017/08/16 346 493 +14 501
2017/08/15 331 992 -1 547
2017/08/14 333 539 -2 237
2017/08/13 335 776 -48 520
2017/08/12 384 296 +3 671
2017/08/11 380 625 +983
2017/08/10 379 642 +53 083
2017/08/09 326 559 +27 511
2017/08/08 299 048 +688
2017/08/07 298 360 -4 238
2017/08/06 302 598 +22 900
2017/08/05 279 698 -162
2017/08/04 279 860 -25 971
2017/08/03 305 831 +1 175
2017/08/02 304 656 +23 800
2017/08/01 280 856 +6 459
2017/07/31 274 397 +19 606
2017/07/30 254 791 -579
2017/07/29 255 370 -16 421
2017/07/28 271 791 +15 876
2017/07/27 255 915 -3 767
2017/07/26 259 682 -21 171
2017/07/25 280 853 +8 457
2017/07/24 272 396 -1 316
2017/07/23 273 712 -27 101
2017/07/22 300 813 -406
2017/07/21 301 219 -144
2017/07/20 301 363 +51 255
2017/07/19 250 108 +19 290
2017/07/18 230 818 -650
2017/07/17 231 468 -999
2017/07/16 232 467 +7 144
2017/07/15 225 323 -104
2017/07/14 225 427 +41
2017/07/13 225 386 +787
2017/07/12 224 599 -32 322
2017/07/11 256 921 -748
2017/07/10 257 669 -30 983
2017/07/09 288 652 -26 157
2017/07/08 314 809 -2 299
2017/07/07 317 108 +36
2017/07/06 317 072 -30 807
2017/07/05 347 879 +1 469
2017/07/04 346 410 -916
2017/07/03 347 326 -1 249
2017/07/02 348 575 +41 097
2017/07/01 307 478 -41 575
2017/06/30 349 053 +1 444
2017/06/29 347 609 +1 440
2017/06/28 346 169 -32 591
2017/06/27 378 760 +36 991
2017/06/26 341 769 +6 926
2017/06/25 334 843 -16 003
2017/06/24 350 846 +34 054
2017/06/23 316 792 +980
2017/06/22 315 812 +1 218
2017/06/21 314 594

WIDGET FOR YOUR SITE

DOMAINS WITH THE NEAREST RANK

Domain Rank
colorkinetics.com 307 383
mymusicshop.pl 307 384
edgemedianetwork.com 307 385
wayr3672.com 307 386
windowschimp.com 307 387
7727.cn 307 388
uasf.co 307 389
bestonlinehtmleditor.com 307 390
xn--80aaycfjjdyvv.xn--p1ai 307 391
sportscn.com 307 392
miau.bg 307 393

DOMAINS WITH THE NEAREST RANK BY TLD .cn

Domain Rank
orderonline.cn 306 578
whgjj.cn 306 895
sculx.cn 307 038
tl92.cn 307 281
yiwang.cn 307 311
7727.cn 307 388
caaa.cn 307 447
winmobi.cn 307 488
chinatowercom.cn 307 600
flyrise.cn 307 633
xiuyuliang.cn 307 741